sensor_id;sensor_type;location;lat;lon;timestamp;P1;durP1;ratioP1;P2;durP2;ratioP2
17953;SDS011;9102;53.548;9.926;2023-07-02T00:02:07;8.18;;;3.20;;
17953;SDS011;9102;53.548;9.926;2023-07-02T00:04:34;6.95;;;2.90;;
17953;SDS011;9102;53.548;9.926;2023-07-02T00:07:01;6.93;;;3.40;;
17953;SDS011;9102;53.548;9.926;2023-07-02T00:09:29;11.05;;;3.70;;
17953;SDS011;9102;53.548;9.926;2023-07-02T00:11:56;7.65;;;3.42;;
17953;SDS011;9102;53.548;9.926;2023-07-02T00:14:23;9.95;;;3.47;;
17953;SDS011;9102;53.548;9.926;2023-07-02T00:16:49;8.00;;;3.20;;
17953;SDS011;9102;53.548;9.926;2023-07-02T00:19:18;9.15;;;4.10;;
17953;SDS011;9102;53.548;9.926;2023-07-02T00:21:44;7.45;;;3.63;;
17953;SDS011;9102;53.548;9.926;2023-07-02T00:24:12;8.80;;;4.43;;
17953;SDS011;9102;53.548;9.926;2023-07-02T00:26:41;10.05;;;3.50;;
17953;SDS011;9102;53.548;9.926;2023-07-02T00:29:08;13.07;;;4.63;;
17953;SDS011;9102;53.548;9.926;2023-07-02T00:31:35;7.88;;;3.47;;
17953;SDS011;9102;53.548;9.926;2023-07-02T00:34:02;10.23;;;3.60;;
17953;SDS011;9102;53.548;9.926;2023-07-02T00:36:31;5.97;;;3.25;;
17953;SDS011;9102;53.548;9.926;2023-07-02T00:38:58;7.03;;;3.30;;
17953;SDS011;9102;53.548;9.926;2023-07-02T00:41:25;11.60;;;3.33;;
17953;SDS011;9102;53.548;9.926;2023-07-02T00:43:52;9.07;;;3.70;;
17953;SDS011;9102;53.548;9.926;2023-07-02T00:46:20;9.02;;;3.67;;
17953;SDS011;9102;53.548;9.926;2023-07-02T00:48:50;5.80;;;3.20;;
17953;SDS011;9102;53.548;9.926;2023-07-02T00:51:19;6.85;;;3.13;;
17953;SDS011;9102;53.548;9.926;2023-07-02T00:53:48;9.77;;;3.13;;
17953;SDS011;9102;53.548;9.926;2023-07-02T00:56:16;5.97;;;3.30;;
17953;SDS011;9102;53.548;9.926;2023-07-02T00:58:44;8.77;;;3.15;;
17953;SDS011;9102;53.548;9.926;2023-07-02T01:01:13;7.30;;;3.42;;
17953;SDS011;9102;53.548;9.926;2023-07-02T01:03:49;9.00;;;3.72;;
17953;SDS011;9102;53.548;9.926;2023-07-02T01:06:18;5.45;;;2.88;;
17953;SDS011;9102;53.548;9.926;2023-07-02T01:08:51;6.47;;;3.20;;
17953;SDS011;9102;53.548;9.926;2023-07-02T01:11:19;5.70;;;2.70;;
17953;SDS011;9102;53.548;9.926;2023-07-02T01:13:47;9.65;;;3.85;;
17953;SDS011;9102;53.548;9.926;2023-07-02T01:16:15;10.98;;;3.45;;
17953;SDS011;9102;53.548;9.926;2023-07-02T01:18:42;14.88;;;3.30;;
17953;SDS011;9102;53.548;9.926;2023-07-02T01:21:12;6.80;;;3.28;;
17953;SDS011;9102;53.548;9.926;2023-07-02T01:23:39;7.03;;;3.47;;
17953;SDS011;9102;53.548;9.926;2023-07-02T01:26:06;8.55;;;3.38;;
17953;SDS011;9102;53.548;9.926;2023-07-02T01:28:35;10.02;;;3.70;;
17953;SDS011;9102;53.548;9.926;2023-07-02T01:31:03;8.50;;;3.30;;
17953;SDS011;9102;53.548;9.926;2023-07-02T01:33:30;9.88;;;4.00;;
17953;SDS011;9102;53.548;9.926;2023-07-02T01:35:57;9.93;;;4.10;;
17953;SDS011;9102;53.548;9.926;2023-07-02T01:38:25;12.90;;;3.97;;
17953;SDS011;9102;53.548;9.926;2023-07-02T01:40:52;15.02;;;3.72;;
17953;SDS011;9102;53.548;9.926;2023-07-02T01:43:19;15.30;;;3.78;;
17953;SDS011;9102;53.548;9.926;2023-07-02T01:45:46;7.22;;;3.47;;
17953;SDS011;9102;53.548;9.926;2023-07-02T01:48:13;10.38;;;3.80;;
17953;SDS011;9102;53.548;9.926;2023-07-02T01:50:40;6.78;;;3.78;;
17953;SDS011;9102;53.548;9.926;2023-07-02T01:53:06;10.85;;;3.72;;
17953;SDS011;9102;53.548;9.926;2023-07-02T01:55:35;11.45;;;3.67;;
17953;SDS011;9102;53.548;9.926;2023-07-02T01:58:02;10.23;;;3.92;;
17953;SDS011;9102;53.548;9.926;2023-07-02T02:00:28;6.53;;;3.33;;
17953;SDS011;9102;53.548;9.926;2023-07-02T02:02:56;8.82;;;3.67;;
17953;SDS011;9102;53.548;9.926;2023-07-02T02:05:24;8.60;;;3.75;;
17953;SDS011;9102;53.548;9.926;2023-07-02T02:07:51;9.55;;;4.28;;
17953;SDS011;9102;53.548;9.926;2023-07-02T02:10:18;10.73;;;3.90;;
17953;SDS011;9102;53.548;9.926;2023-07-02T02:12:46;14.02;;;4.82;;
17953;SDS011;9102;53.548;9.926;2023-07-02T02:15:13;16.08;;;5.40;;
17953;SDS011;9102;53.548;9.926;2023-07-02T02:17:40;10.30;;;5.70;;
17953;SDS011;9102;53.548;9.926;2023-07-02T02:20:12;10.90;;;5.57;;
17953;SDS011;9102;53.548;9.926;2023-07-02T02:22:39;16.17;;;5.80;;
17953;SDS011;9102;53.548;9.926;2023-07-02T02:25:06;8.30;;;5.03;;
17953;SDS011;9102;53.548;9.926;2023-07-02T02:27:34;11.00;;;4.70;;
17953;SDS011;9102;53.548;9.926;2023-07-02T02:30:02;11.75;;;5.13;;
17953;SDS011;9102;53.548;9.926;2023-07-02T02:32:29;12.32;;;4.95;;
17953;SDS011;9102;53.548;9.926;2023-07-02T02:34:56;8.57;;;4.70;;
17953;SDS011;9102;53.548;9.926;2023-07-02T02:37:23;8.18;;;4.63;;
17953;SDS011;9102;53.548;9.926;2023-07-02T02:39:50;16.55;;;5.22;;
17953;SDS011;9102;53.548;9.926;2023-07-02T02:42:17;14.10;;;5.38;;
17953;SDS011;9102;53.548;9.926;2023-07-02T02:44:43;11.38;;;4.75;;
17953;SDS011;9102;53.548;9.926;2023-07-02T02:47:12;13.57;;;5.00;;
17953;SDS011;9102;53.548;9.926;2023-07-02T02:49:38;11.23;;;4.72;;
17953;SDS011;9102;53.548;9.926;2023-07-02T02:52:05;9.80;;;4.75;;
17953;SDS011;9102;53.548;9.926;2023-07-02T02:54:32;10.55;;;5.05;;
17953;SDS011;9102;53.548;9.926;2023-07-02T02:56:59;8.98;;;5.28;;
17953;SDS011;9102;53.548;9.926;2023-07-02T02:59:26;10.88;;;5.25;;
17953;SDS011;9102;53.548;9.926;2023-07-02T03:01:53;7.88;;;4.88;;
17953;SDS011;9102;53.548;9.926;2023-07-02T03:04:22;9.63;;;4.97;;
17953;SDS011;9102;53.548;9.926;2023-07-02T03:06:50;10.65;;;5.30;;
17953;SDS011;9102;53.548;9.926;2023-07-02T03:09:18;9.90;;;4.88;;
17953;SDS011;9102;53.548;9.926;2023-07-02T03:11:45;9.68;;;4.65;;
17953;SDS011;9102;53.548;9.926;2023-07-02T03:14:13;9.82;;;4.82;;
17953;SDS011;9102;53.548;9.926;2023-07-02T03:16:40;10.10;;;4.97;;
17953;SDS011;9102;53.548;9.926;2023-07-02T03:19:08;13.77;;;4.97;;
17953;SDS011;9102;53.548;9.926;2023-07-02T03:21:36;10.45;;;4.53;;
17953;SDS011;9102;53.548;9.926;2023-07-02T03:24:03;11.60;;;5.78;;
17953;SDS011;9102;53.548;9.926;2023-07-02T03:26:30;10.32;;;4.95;;
17953;SDS011;9102;53.548;9.926;2023-07-02T03:28:56;12.52;;;5.75;;
17953;SDS011;9102;53.548;9.926;2023-07-02T03:31:23;13.55;;;4.90;;
17953;SDS011;9102;53.548;9.926;2023-07-02T03:33:50;9.85;;;5.38;;
17953;SDS011;9102;53.548;9.926;2023-07-02T03:36:17;11.00;;;5.05;;
17953;SDS011;9102;53.548;9.926;2023-07-02T03:38:45;12.63;;;4.82;;
17953;SDS011;9102;53.548;9.926;2023-07-02T03:41:12;10.27;;;5.38;;
17953;SDS011;9102;53.548;9.926;2023-07-02T03:43:38;12.00;;;5.40;;
17953;SDS011;9102;53.548;9.926;2023-07-02T03:46:05;11.20;;;4.88;;
17953;SDS011;9102;53.548;9.926;2023-07-02T03:48:32;8.02;;;4.75;;
17953;SDS011;9102;53.548;9.926;2023-07-02T03:50:59;14.10;;;5.40;;
17953;SDS011;9102;53.548;9.926;2023-07-02T03:53:27;11.05;;;4.70;;
17953;SDS011;9102;53.548;9.926;2023-07-02T03:55:55;14.60;;;5.75;;
17953;SDS011;9102;53.548;9.926;2023-07-02T03:58:22;14.57;;;5.15;;
17953;SDS011;9102;53.548;9.926;2023-07-02T04:00:49;14.18;;;5.30;;
17953;SDS011;9102;53.548;9.926;2023-07-02T04:03:15;17.23;;;5.32;;
17953;SDS011;9102;53.548;9.926;2023-07-02T04:05:42;15.82;;;5.38;;
17953;SDS011;9102;53.548;9.926;2023-07-02T04:08:10;15.60;;;5.10;;
17953;SDS011;9102;53.548;9.926;2023-07-02T04:10:36;11.05;;;5.15;;
17953;SDS011;9102;53.548;9.926;2023-07-02T04:13:05;12.50;;;5.45;;
17953;SDS011;9102;53.548;9.926;2023-07-02T04:15:31;14.70;;;5.47;;
17953;SDS011;9102;53.548;9.926;2023-07-02T04:17:58;13.70;;;4.90;;
17953;SDS011;9102;53.548;9.926;2023-07-02T04:20:25;12.70;;;4.75;;
17953;SDS011;9102;53.548;9.926;2023-07-02T04:22:53;14.02;;;5.03;;
17953;SDS011;9102;53.548;9.926;2023-07-02T04:25:20;17.95;;;6.50;;
17953;SDS011;9102;53.548;9.926;2023-07-02T04:27:47;15.00;;;4.75;;
17953;SDS011;9102;53.548;9.926;2023-07-02T04:30:15;9.82;;;4.70;;
17953;SDS011;9102;53.548;9.926;2023-07-02T04:32:42;15.98;;;4.97;;
17953;SDS011;9102;53.548;9.926;2023-07-02T04:35:09;16.30;;;5.07;;
17953;SDS011;9102;53.548;9.926;2023-07-02T04:37:37;16.27;;;5.10;;
17953;SDS011;9102;53.548;9.926;2023-07-02T04:40:05;9.88;;;4.80;;
17953;SDS011;9102;53.548;9.926;2023-07-02T04:42:34;13.45;;;4.55;;
17953;SDS011;9102;53.548;9.926;2023-07-02T04:45:02;16.90;;;4.82;;
17953;SDS011;9102;53.548;9.926;2023-07-02T04:47:31;17.85;;;5.82;;
17953;SDS011;9102;53.548;9.926;2023-07-02T04:49:58;10.88;;;4.90;;
17953;SDS011;9102;53.548;9.926;2023-07-02T04:52:26;14.10;;;5.28;;
17953;SDS011;9102;53.548;9.926;2023-07-02T04:54:53;18.73;;;5.47;;
17953;SDS011;9102;53.548;9.926;2023-07-02T04:57:21;16.85;;;5.40;;
17953;SDS011;9102;53.548;9.926;2023-07-02T04:59:47;14.32;;;4.80;;
17953;SDS011;9102;53.548;9.926;2023-07-02T05:02:15;17.52;;;5.90;;
17953;SDS011;9102;53.548;9.926;2023-07-02T05:04:43;15.77;;;4.93;;
17953;SDS011;9102;53.548;9.926;2023-07-02T05:07:10;18.77;;;5.90;;
17953;SDS011;9102;53.548;9.926;2023-07-02T05:09:36;14.50;;;6.15;;
17953;SDS011;9102;53.548;9.926;2023-07-02T05:12:03;13.75;;;5.68;;
17953;SDS011;9102;53.548;9.926;2023-07-02T05:14:30;14.98;;;5.30;;
17953;SDS011;9102;53.548;9.926;2023-07-02T05:16:57;15.98;;;5.10;;
17953;SDS011;9102;53.548;9.926;2023-07-02T05:19:24;17.88;;;6.30;;
17953;SDS011;9102;53.548;9.926;2023-07-02T05:21:52;14.88;;;5.22;;
17953;SDS011;9102;53.548;9.926;2023-07-02T05:24:19;16.90;;;5.97;;
17953;SDS011;9102;53.548;9.926;2023-07-02T05:26:46;17.35;;;6.40;;
17953;SDS011;9102;53.548;9.926;2023-07-02T05:29:13;14.50;;;5.82;;
17953;SDS011;9102;53.548;9.926;2023-07-02T05:31:40;15.63;;;5.72;;
17953;SDS011;9102;53.548;9.926;2023-07-02T05:34:07;17.33;;;5.80;;
17953;SDS011;9102;53.548;9.926;2023-07-02T05:36:34;17.35;;;6.22;;
17953;SDS011;9102;53.548;9.926;2023-07-02T05:39:02;21.98;;;5.93;;
17953;SDS011;9102;53.548;9.926;2023-07-02T05:41:29;17.42;;;5.88;;
17953;SDS011;9102;53.548;9.926;2023-07-02T05:43:56;16.08;;;7.05;;
17953;SDS011;9102;53.548;9.926;2023-07-02T05:46:23;23.40;;;6.32;;
17953;SDS011;9102;53.548;9.926;2023-07-02T05:48:50;23.70;;;6.28;;
17953;SDS011;9102;53.548;9.926;2023-07-02T05:51:19;19.80;;;6.43;;
17953;SDS011;9102;53.548;9.926;2023-07-02T05:53:46;18.98;;;6.03;;
17953;SDS011;9102;53.548;9.926;2023-07-02T05:56:15;16.45;;;6.50;;
17953;SDS011;9102;53.548;9.926;2023-07-02T05:58:42;19.10;;;6.75;;
17953;SDS011;9102;53.548;9.926;2023-07-02T06:01:12;23.90;;;6.47;;
17953;SDS011;9102;53.548;9.926;2023-07-02T06:03:39;24.33;;;7.05;;
17953;SDS011;9102;53.548;9.926;2023-07-02T06:06:05;24.30;;;6.72;;
17953;SDS011;9102;53.548;9.926;2023-07-02T06:08:32;24.30;;;6.80;;
17953;SDS011;9102;53.548;9.926;2023-07-02T06:10:59;22.33;;;6.32;;
17953;SDS011;9102;53.548;9.926;2023-07-02T06:13:27;25.60;;;7.88;;
17953;SDS011;9102;53.548;9.926;2023-07-02T06:15:54;24.70;;;7.82;;
17953;SDS011;9102;53.548;9.926;2023-07-02T06:18:22;18.40;;;7.18;;
17953;SDS011;9102;53.548;9.926;2023-07-02T06:20:48;23.50;;;6.88;;
17953;SDS011;9102;53.548;9.926;2023-07-02T06:23:16;27.73;;;7.75;;
17953;SDS011;9102;53.548;9.926;2023-07-02T06:25:43;24.27;;;6.82;;
17953;SDS011;9102;53.548;9.926;2023-07-02T06:28:10;27.63;;;7.68;;
17953;SDS011;9102;53.548;9.926;2023-07-02T06:30:38;20.08;;;7.35;;
17953;SDS011;9102;53.548;9.926;2023-07-02T06:33:05;24.05;;;7.03;;
17953;SDS011;9102;53.548;9.926;2023-07-02T06:35:33;18.35;;;7.22;;
17953;SDS011;9102;53.548;9.926;2023-07-02T06:38:00;23.25;;;7.80;;
17953;SDS011;9102;53.548;9.926;2023-07-02T06:40:28;24.52;;;7.40;;
17953;SDS011;9102;53.548;9.926;2023-07-02T06:42:59;29.65;;;8.02;;
17953;SDS011;9102;53.548;9.926;2023-07-02T06:45:29;33.25;;;7.40;;
17953;SDS011;9102;53.548;9.926;2023-07-02T06:47:59;26.35;;;7.78;;
17953;SDS011;9102;53.548;9.926;2023-07-02T06:50:28;27.27;;;7.22;;
17953;SDS011;9102;53.548;9.926;2023-07-02T06:52:58;23.15;;;6.75;;
17953;SDS011;9102;53.548;9.926;2023-07-02T06:55:27;27.13;;;7.70;;
17953;SDS011;9102;53.548;9.926;2023-07-02T06:57:54;23.45;;;7.47;;
17953;SDS011;9102;53.548;9.926;2023-07-02T07:00:21;25.08;;;7.78;;
17953;SDS011;9102;53.548;9.926;2023-07-02T07:02:59;29.02;;;7.72;;
17953;SDS011;9102;53.548;9.926;2023-07-02T07:05:34;21.15;;;7.57;;
17953;SDS011;9102;53.548;9.926;2023-07-02T07:08:04;21.92;;;7.35;;
17953;SDS011;9102;53.548;9.926;2023-07-02T07:10:31;22.17;;;7.30;;
17953;SDS011;9102;53.548;9.926;2023-07-02T07:12:59;18.27;;;6.72;;
17953;SDS011;9102;53.548;9.926;2023-07-02T07:15:27;20.77;;;6.60;;
17953;SDS011;9102;53.548;9.926;2023-07-02T07:18:00;22.23;;;7.80;;
17953;SDS011;9102;53.548;9.926;2023-07-02T07:20:26;16.63;;;6.25;;
17953;SDS011;9102;53.548;9.926;2023-07-02T07:23:05;22.00;;;7.50;;
17953;SDS011;9102;53.548;9.926;2023-07-02T07:25:32;24.95;;;7.65;;
17953;SDS011;9102;53.548;9.926;2023-07-02T07:27:59;27.80;;;8.00;;
17953;SDS011;9102;53.548;9.926;2023-07-02T07:30:26;23.23;;;7.55;;
17953;SDS011;9102;53.548;9.926;2023-07-02T07:32:53;25.92;;;7.72;;
17953;SDS011;9102;53.548;9.926;2023-07-02T07:35:25;21.80;;;7.15;;
17953;SDS011;9102;53.548;9.926;2023-07-02T07:37:52;23.08;;;7.07;;
17953;SDS011;9102;53.548;9.926;2023-07-02T07:40:18;18.52;;;7.18;;
17953;SDS011;9102;53.548;9.926;2023-07-02T07:42:45;18.08;;;6.85;;
17953;SDS011;9102;53.548;9.926;2023-07-02T07:45:12;18.23;;;6.35;;
17953;SDS011;9102;53.548;9.926;2023-07-02T07:47:39;18.02;;;6.70;;
17953;SDS011;9102;53.548;9.926;2023-07-02T07:50:06;19.63;;;6.72;;
17953;SDS011;9102;53.548;9.926;2023-07-02T07:52:37;22.85;;;7.78;;
17953;SDS011;9102;53.548;9.926;2023-07-02T07:55:04;22.92;;;7.10;;
17953;SDS011;9102;53.548;9.926;2023-07-02T07:57:31;21.23;;;6.93;;
17953;SDS011;9102;53.548;9.926;2023-07-02T07:59:58;21.27;;;6.50;;
17953;SDS011;9102;53.548;9.926;2023-07-02T08:02:25;27.20;;;7.07;;
17953;SDS011;9102;53.548;9.926;2023-07-02T08:04:52;19.02;;;6.78;;
17953;SDS011;9102;53.548;9.926;2023-07-02T08:07:19;20.25;;;7.05;;
17953;SDS011;9102;53.548;9.926;2023-07-02T08:09:47;26.08;;;6.90;;
17953;SDS011;9102;53.548;9.926;2023-07-02T08:12:14;19.33;;;6.25;;
17953;SDS011;9102;53.548;9.926;2023-07-02T08:14:41;17.00;;;6.43;;
17953;SDS011;9102;53.548;9.926;2023-07-02T08:17:08;18.50;;;6.88;;
17953;SDS011;9102;53.548;9.926;2023-07-02T08:19:35;22.77;;;6.43;;
17953;SDS011;9102;53.548;9.926;2023-07-02T08:22:01;15.07;;;5.47;;
17953;SDS011;9102;53.548;9.926;2023-07-02T08:24:28;17.83;;;6.05;;
17953;SDS011;9102;53.548;9.926;2023-07-02T08:26:57;15.15;;;5.88;;
17953;SDS011;9102;53.548;9.926;2023-07-02T08:29:24;16.88;;;6.45;;
17953;SDS011;9102;53.548;9.926;2023-07-02T08:31:51;12.15;;;5.00;;
17953;SDS011;9102;53.548;9.926;2023-07-02T08:34:18;12.10;;;5.25;;
17953;SDS011;9102;53.548;9.926;2023-07-02T08:36:44;14.40;;;4.70;;
17953;SDS011;9102;53.548;9.926;2023-07-02T08:39:11;11.18;;;4.78;;
17953;SDS011;9102;53.548;9.926;2023-07-02T08:41:42;14.75;;;4.78;;
17953;SDS011;9102;53.548;9.926;2023-07-02T08:44:12;16.33;;;5.55;;
17953;SDS011;9102;53.548;9.926;2023-07-02T08:46:39;15.00;;;4.65;;
17953;SDS011;9102;53.548;9.926;2023-07-02T08:49:07;21.48;;;4.97;;
17953;SDS011;9102;53.548;9.926;2023-07-02T08:51:35;12.40;;;4.82;;
17953;SDS011;9102;53.548;9.926;2023-07-02T08:54:02;15.63;;;4.75;;
17953;SDS011;9102;53.548;9.926;2023-07-02T08:56:29;11.50;;;4.75;;
17953;SDS011;9102;53.548;9.926;2023-07-02T08:58:56;16.77;;;4.43;;
17953;SDS011;9102;53.548;9.926;2023-07-02T09:01:24;13.70;;;4.50;;
17953;SDS011;9102;53.548;9.926;2023-07-02T09:03:57;13.38;;;4.97;;
17953;SDS011;9102;53.548;9.926;2023-07-02T09:06:25;14.32;;;4.93;;
17953;SDS011;9102;53.548;9.926;2023-07-02T09:08:52;13.30;;;4.55;;
17953;SDS011;9102;53.548;9.926;2023-07-02T09:11:19;11.18;;;4.75;;
17953;SDS011;9102;53.548;9.926;2023-07-02T09:13:46;14.52;;;4.75;;
17953;SDS011;9102;53.548;9.926;2023-07-02T09:16:21;15.27;;;4.20;;
17953;SDS011;9102;53.548;9.926;2023-07-02T09:18:56;16.38;;;4.80;;
17953;SDS011;9102;53.548;9.926;2023-07-02T09:21:25;11.60;;;4.43;;
17953;SDS011;9102;53.548;9.926;2023-07-02T09:23:52;11.80;;;4.15;;
17953;SDS011;9102;53.548;9.926;2023-07-02T09:26:19;18.08;;;4.72;;
17953;SDS011;9102;53.548;9.926;2023-07-02T09:28:46;16.50;;;5.05;;
17953;SDS011;9102;53.548;9.926;2023-07-02T09:31:13;15.52;;;4.68;;
17953;SDS011;9102;53.548;9.926;2023-07-02T09:33:40;17.00;;;6.70;;
17953;SDS011;9102;53.548;9.926;2023-07-02T09:36:08;15.95;;;5.35;;
17953;SDS011;9102;53.548;9.926;2023-07-02T09:38:36;15.43;;;4.75;;
17953;SDS011;9102;53.548;9.926;2023-07-02T09:41:03;15.18;;;5.20;;
17953;SDS011;9102;53.548;9.926;2023-07-02T09:43:30;11.32;;;4.93;;
17953;SDS011;9102;53.548;9.926;2023-07-02T09:45:58;15.48;;;4.80;;
17953;SDS011;9102;53.548;9.926;2023-07-02T09:48:25;14.93;;;4.75;;
17953;SDS011;9102;53.548;9.926;2023-07-02T09:50:57;12.32;;;4.55;;
17953;SDS011;9102;53.548;9.926;2023-07-02T09:53:27;15.20;;;4.13;;
17953;SDS011;9102;53.548;9.926;2023-07-02T09:55:55;18.15;;;5.18;;
17953;SDS011;9102;53.548;9.926;2023-07-02T09:58:22;8.25;;;3.45;;
17953;SDS011;9102;53.548;9.926;2023-07-02T10:00:49;13.57;;;3.90;;
17953;SDS011;9102;53.548;9.926;2023-07-02T10:03:16;10.65;;;3.65;;
17953;SDS011;9102;53.548;9.926;2023-07-02T10:05:43;13.95;;;4.20;;
17953;SDS011;9102;53.548;9.926;2023-07-02T10:08:13;11.32;;;4.15;;
17953;SDS011;9102;53.548;9.926;2023-07-02T10:10:44;13.23;;;3.90;;
17953;SDS011;9102;53.548;9.926;2023-07-02T10:13:11;17.05;;;4.38;;
17953;SDS011;9102;53.548;9.926;2023-07-02T10:15:38;8.98;;;4.30;;
17953;SDS011;9102;53.548;9.926;2023-07-02T10:18:05;12.43;;;4.72;;
17953;SDS011;9102;53.548;9.926;2023-07-02T10:20:32;11.95;;;4.47;;
17953;SDS011;9102;53.548;9.926;2023-07-02T10:23:00;15.88;;;4.50;;
17953;SDS011;9102;53.548;9.926;2023-07-02T10:25:28;10.75;;;4.45;;
17953;SDS011;9102;53.548;9.926;2023-07-02T10:27:57;13.95;;;4.43;;
17953;SDS011;9102;53.548;9.926;2023-07-02T10:30:30;17.90;;;4.53;;
17953;SDS011;9102;53.548;9.926;2023-07-02T10:33:08;12.07;;;3.72;;
17953;SDS011;9102;53.548;9.926;2023-07-02T10:35:36;20.33;;;4.25;;
17953;SDS011;9102;53.548;9.926;2023-07-02T10:38:03;16.88;;;4.57;;
17953;SDS011;9102;53.548;9.926;2023-07-02T10:40:32;12.43;;;3.97;;
17953;SDS011;9102;53.548;9.926;2023-07-02T10:43:03;12.23;;;3.92;;
17953;SDS011;9102;53.548;9.926;2023-07-02T10:45:32;15.50;;;3.97;;
17953;SDS011;9102;53.548;9.926;2023-07-02T10:48:01;12.77;;;4.03;;
17953;SDS011;9102;53.548;9.926;2023-07-02T10:50:29;14.95;;;4.30;;
17953;SDS011;9102;53.548;9.926;2023-07-02T10:52:57;13.18;;;3.90;;
17953;SDS011;9102;53.548;9.926;2023-07-02T10:55:26;12.45;;;3.60;;
17953;SDS011;9102;53.548;9.926;2023-07-02T10:58:04;12.25;;;3.92;;
17953;SDS011;9102;53.548;9.926;2023-07-02T11:00:33;9.90;;;2.90;;
17953;SDS011;9102;53.548;9.926;2023-07-02T11:03:15;6.78;;;2.88;;
17953;SDS011;9102;53.548;9.926;2023-07-02T11:05:43;10.43;;;3.47;;
17953;SDS011;9102;53.548;9.926;2023-07-02T11:08:10;8.82;;;3.20;;
17953;SDS011;9102;53.548;9.926;2023-07-02T11:10:37;14.50;;;3.55;;
17953;SDS011;9102;53.548;9.926;2023-07-02T11:13:12;13.57;;;3.20;;
17953;SDS011;9102;53.548;9.926;2023-07-02T11:15:39;9.32;;;3.05;;
17953;SDS011;9102;53.548;9.926;2023-07-02T11:18:10;13.38;;;3.28;;
17953;SDS011;9102;53.548;9.926;2023-07-02T11:20:37;8.82;;;3.00;;
17953;SDS011;9102;53.548;9.926;2023-07-02T11:23:05;10.10;;;3.40;;
17953;SDS011;9102;53.548;9.926;2023-07-02T11:25:42;8.07;;;2.72;;
17953;SDS011;9102;53.548;9.926;2023-07-02T11:28:21;10.38;;;3.05;;
17953;SDS011;9102;53.548;9.926;2023-07-02T11:30:47;9.45;;;3.13;;
17953;SDS011;9102;53.548;9.926;2023-07-02T11:33:14;9.85;;;3.13;;
17953;SDS011;9102;53.548;9.926;2023-07-02T11:35:41;9.93;;;2.85;;
17953;SDS011;9102;53.548;9.926;2023-07-02T11:38:08;7.47;;;2.65;;
17953;SDS011;9102;53.548;9.926;2023-07-02T11:40:35;5.82;;;2.35;;
17953;SDS011;9102;53.548;9.926;2023-07-02T11:43:02;14.05;;;2.28;;
17953;SDS011;9102;53.548;9.926;2023-07-02T11:45:32;10.68;;;2.55;;
17953;SDS011;9102;53.548;9.926;2023-07-02T11:47:59;7.68;;;2.30;;
17953;SDS011;9102;53.548;9.926;2023-07-02T11:50:26;10.55;;;2.30;;
17953;SDS011;9102;53.548;9.926;2023-07-02T11:52:55;9.88;;;2.65;;
17953;SDS011;9102;53.548;9.926;2023-07-02T11:55:22;7.60;;;2.20;;
17953;SDS011;9102;53.548;9.926;2023-07-02T11:57:50;12.00;;;2.95;;
17953;SDS011;9102;53.548;9.926;2023-07-02T12:00:17;9.85;;;1.92;;
17953;SDS011;9102;53.548;9.926;2023-07-02T12:02:46;8.15;;;2.05;;
17953;SDS011;9102;53.548;9.926;2023-07-02T12:05:13;8.18;;;1.80;;
17953;SDS011;9102;53.548;9.926;2023-07-02T12:07:39;8.35;;;2.00;;
17953;SDS011;9102;53.548;9.926;2023-07-02T12:10:07;11.70;;;2.92;;
17953;SDS011;9102;53.548;9.926;2023-07-02T12:12:34;12.07;;;2.15;;
17953;SDS011;9102;53.548;9.926;2023-07-02T12:15:01;8.50;;;2.13;;
17953;SDS011;9102;53.548;9.926;2023-07-02T12:17:28;7.85;;;2.42;;
17953;SDS011;9102;53.548;9.926;2023-07-02T12:19:56;8.10;;;2.67;;
17953;SDS011;9102;53.548;9.926;2023-07-02T12:22:24;8.75;;;2.50;;
17953;SDS011;9102;53.548;9.926;2023-07-02T12:24:51;6.90;;;2.20;;
17953;SDS011;9102;53.548;9.926;2023-07-02T12:27:20;8.95;;;2.10;;
17953;SDS011;9102;53.548;9.926;2023-07-02T12:29:47;7.50;;;2.30;;
17953;SDS011;9102;53.548;9.926;2023-07-02T12:32:14;7.00;;;2.17;;
17953;SDS011;9102;53.548;9.926;2023-07-02T12:34:49;10.25;;;2.42;;
17953;SDS011;9102;53.548;9.926;2023-07-02T12:37:17;10.63;;;2.30;;
17953;SDS011;9102;53.548;9.926;2023-07-02T12:39:45;6.90;;;2.20;;
17953;SDS011;9102;53.548;9.926;2023-07-02T12:42:12;9.05;;;2.58;;
17953;SDS011;9102;53.548;9.926;2023-07-02T12:44:39;10.98;;;2.38;;
17953;SDS011;9102;53.548;9.926;2023-07-02T12:47:06;12.55;;;2.28;;
17953;SDS011;9102;53.548;9.926;2023-07-02T12:49:33;11.60;;;2.40;;
17953;SDS011;9102;53.548;9.926;2023-07-02T12:52:00;7.35;;;2.03;;
17953;SDS011;9102;53.548;9.926;2023-07-02T12:54:30;9.20;;;2.28;;
17953;SDS011;9102;53.548;9.926;2023-07-02T12:56:57;14.70;;;2.50;;
17953;SDS011;9102;53.548;9.926;2023-07-02T12:59:24;6.43;;;2.10;;
17953;SDS011;9102;53.548;9.926;2023-07-02T13:01:52;6.63;;;2.35;;
17953;SDS011;9102;53.548;9.926;2023-07-02T13:04:20;5.78;;;1.70;;
17953;SDS011;9102;53.548;9.926;2023-07-02T13:07:05;9.65;;;2.85;;
17953;SDS011;9102;53.548;9.926;2023-07-02T13:09:35;13.13;;;2.25;;
17953;SDS011;9102;53.548;9.926;2023-07-02T13:12:12;8.93;;;2.20;;
17953;SDS011;9102;53.548;9.926;2023-07-02T13:14:53;10.02;;;1.98;;
17953;SDS011;9102;53.548;9.926;2023-07-02T13:17:20;7.80;;;2.92;;
17953;SDS011;9102;53.548;9.926;2023-07-02T13:19:56;11.93;;;2.17;;
17953;SDS011;9102;53.548;9.926;2023-07-02T13:22:22;4.82;;;1.48;;
17953;SDS011;9102;53.548;9.926;2023-07-02T13:24:52;8.77;;;1.98;;
17953;SDS011;9102;53.548;9.926;2023-07-02T13:27:19;9.32;;;2.03;;
17953;SDS011;9102;53.548;9.926;2023-07-02T13:29:47;7.50;;;1.95;;
17953;SDS011;9102;53.548;9.926;2023-07-02T13:32:13;11.13;;;1.67;;
17953;SDS011;9102;53.548;9.926;2023-07-02T13:34:41;10.07;;;2.00;;
17953;SDS011;9102;53.548;9.926;2023-07-02T13:37:08;8.57;;;2.03;;
17953;SDS011;9102;53.548;9.926;2023-07-02T13:39:35;8.35;;;1.75;;
17953;SDS011;9102;53.548;9.926;2023-07-02T13:42:03;7.28;;;2.08;;
17953;SDS011;9102;53.548;9.926;2023-07-02T13:44:31;7.65;;;1.80;;
17953;SDS011;9102;53.548;9.926;2023-07-02T13:46:58;8.13;;;2.40;;
17953;SDS011;9102;53.548;9.926;2023-07-02T13:49:25;7.22;;;1.85;;
17953;SDS011;9102;53.548;9.926;2023-07-02T13:51:51;7.28;;;2.03;;
17953;SDS011;9102;53.548;9.926;2023-07-02T13:54:18;7.03;;;1.80;;
17953;SDS011;9102;53.548;9.926;2023-07-02T13:56:45;8.45;;;2.03;;
17953;SDS011;9102;53.548;9.926;2023-07-02T13:59:14;10.80;;;2.30;;
17953;SDS011;9102;53.548;9.926;2023-07-02T14:01:43;15.70;;;2.05;;
17953;SDS011;9102;53.548;9.926;2023-07-02T14:04:10;6.43;;;2.25;;
17953;SDS011;9102;53.548;9.926;2023-07-02T14:06:38;8.18;;;2.10;;
17953;SDS011;9102;53.548;9.926;2023-07-02T14:09:05;6.90;;;1.95;;
17953;SDS011;9102;53.548;9.926;2023-07-02T14:11:33;8.32;;;2.45;;
17953;SDS011;9102;53.548;9.926;2023-07-02T14:14:01;7.55;;;2.22;;
17953;SDS011;9102;53.548;9.926;2023-07-02T14:19:26;9.30;;;2.38;;
17953;SDS011;9102;53.548;9.926;2023-07-02T14:21:52;6.43;;;1.85;;
17953;SDS011;9102;53.548;9.926;2023-07-02T14:24:19;7.22;;;2.13;;
17953;SDS011;9102;53.548;9.926;2023-07-02T14:26:46;7.68;;;2.08;;
17953;SDS011;9102;53.548;9.926;2023-07-02T14:29:13;7.80;;;2.05;;
17953;SDS011;9102;53.548;9.926;2023-07-02T14:31:40;9.23;;;1.98;;
17953;SDS011;9102;53.548;9.926;2023-07-02T14:34:08;6.53;;;1.70;;
17953;SDS011;9102;53.548;9.926;2023-07-02T14:36:35;7.57;;;2.42;;
17953;SDS011;9102;53.548;9.926;2023-07-02T14:39:01;6.05;;;2.17;;
17953;SDS011;9102;53.548;9.926;2023-07-02T14:41:28;6.45;;;1.90;;
17953;SDS011;9102;53.548;9.926;2023-07-02T14:44:00;15.85;;;6.65;;
17953;SDS011;9102;53.548;9.926;2023-07-02T14:46:27;9.20;;;2.75;;
17953;SDS011;9102;53.548;9.926;2023-07-02T14:48:54;6.28;;;2.35;;
17953;SDS011;9102;53.548;9.926;2023-07-02T14:51:22;9.52;;;2.47;;
17953;SDS011;9102;53.548;9.926;2023-07-02T14:53:49;8.13;;;2.40;;
17953;SDS011;9102;53.548;9.926;2023-07-02T14:56:16;6.53;;;2.25;;
17953;SDS011;9102;53.548;9.926;2023-07-02T14:58:44;8.70;;;2.53;;
17953;SDS011;9102;53.548;9.926;2023-07-02T15:01:10;6.22;;;2.33;;